createdAt,value
2022-11-24T00:00:54.814Z,21.50
2022-11-24T00:01:54.720Z,17.90
2022-11-24T00:03:17.264Z,18.40
2022-11-24T01:17:49.608Z,23.80
2022-11-24T01:18:35.371Z,23.40
2022-11-24T01:19:41.194Z,21.70
2022-11-24T01:20:30.685Z,22.40
2022-11-24T01:21:31.000Z,25.90
2022-11-24T01:22:32.378Z,27.90
2022-11-24T01:23:29.794Z,24.30
2022-11-24T01:24:29.158Z,24.80
2022-11-24T01:25:30.473Z,24.00
2022-11-24T01:26:59.050Z,28.40
2022-11-24T01:28:21.199Z,22.70
2022-11-24T01:29:13.443Z,23.10
2022-11-24T01:30:15.252Z,27.40
2022-11-24T01:31:17.073Z,23.70
2022-11-24T01:32:18.023Z,28.00
2022-11-24T01:33:15.732Z,21.50
2022-11-24T01:34:25.523Z,23.90
2022-11-24T01:35:14.300Z,23.10
2022-11-24T01:36:12.511Z,22.80
2022-11-24T01:37:15.060Z,25.70
2022-11-24T01:38:14.196Z,26.00
2022-11-24T01:39:13.740Z,24.30
2022-11-24T01:40:13.507Z,24.40
2022-11-24T01:41:18.622Z,24.50
2022-11-24T01:42:12.473Z,23.80
2022-11-24T01:43:16.043Z,28.80
2022-11-24T01:44:14.655Z,26.80
2022-11-24T01:45:15.917Z,28.60
2022-11-24T01:46:12.122Z,27.20
2022-11-24T01:47:14.034Z,24.60
2022-11-24T01:48:16.020Z,33.10
2022-11-24T01:49:15.936Z,24.10
2022-11-24T01:50:14.446Z,26.10
2022-11-24T01:51:15.971Z,29.80
2022-11-24T01:52:15.507Z,32.30
2022-11-24T01:53:13.514Z,23.80
2022-11-24T01:54:15.392Z,30.50
2022-11-24T01:55:12.322Z,27.40
2022-11-24T01:56:16.942Z,21.90
2022-11-24T01:57:35.012Z,29.90
2022-11-24T01:58:12.944Z,26.70
2022-11-24T01:59:15.911Z,25.60
2022-11-24T02:00:13.395Z,30.60
2022-11-24T02:01:15.081Z,28.50
2022-11-24T02:02:13.303Z,28.00
2022-11-24T02:03:15.130Z,25.00
2022-11-24T02:04:13.546Z,31.10
2022-11-24T02:05:16.046Z,28.00
2022-11-24T02:06:15.021Z,26.40
2022-11-24T02:07:36.870Z,21.30
2022-11-24T02:08:16.286Z,26.70
2022-11-24T02:09:15.260Z,25.80
2022-11-24T02:10:12.852Z,32.20
2022-11-24T02:11:15.084Z,27.40
2022-11-24T02:12:19.350Z,27.90
2022-11-24T02:13:15.110Z,28.00
2022-11-24T02:17:41.947Z,26.40
2022-11-24T02:18:37.819Z,28.10
2022-11-24T02:22:00.552Z,23.30
2022-11-24T02:22:50.498Z,24.00
2022-11-24T02:23:39.357Z,28.80
2022-11-24T02:24:39.138Z,23.00
2022-11-24T02:25:40.417Z,29.70
2022-11-24T02:26:39.378Z,31.70
2022-11-24T02:27:42.508Z,22.20
2022-11-24T02:28:42.607Z,20.20
2022-11-24T02:29:42.125Z,23.80
2022-11-24T02:30:44.016Z,26.70
2022-11-24T02:31:40.163Z,22.20
2022-11-24T02:32:39.466Z,26.40
2022-11-24T02:33:38.918Z,25.70
2022-11-24T02:34:40.070Z,30.50
2022-11-24T02:35:42.427Z,34.10
2022-11-24T02:36:39.186Z,26.40
2022-11-24T02:38:16.024Z,27.00
2022-11-24T02:38:41.949Z,28.80
2022-11-24T02:41:30.167Z,26.50
2022-11-24T02:42:21.898Z,26.70
2022-11-24T02:43:26.058Z,23.90
2022-11-24T02:44:27.724Z,24.80
2022-11-24T02:45:51.623Z,25.90
2022-11-24T02:46:28.562Z,25.40
2022-11-24T02:47:25.675Z,27.90
2022-11-24T02:54:40.748Z,22.20
2022-11-24T02:55:08.270Z,22.90
2022-11-24T03:06:27.012Z,28.10
2022-11-24T03:07:25.098Z,27.80
2022-11-24T03:08:23.301Z,26.90
2022-11-24T03:09:34.321Z,31.00
2022-11-24T03:10:21.500Z,33.40
2022-11-24T03:11:21.768Z,25.10
2022-11-24T03:12:24.941Z,28.20
2022-11-24T03:13:30.799Z,26.40
2022-11-24T03:14:26.237Z,31.10
2022-11-24T03:15:28.998Z,26.70
2022-11-24T03:16:23.641Z,28.40
2022-11-24T03:17:24.137Z,29.30
2022-11-24T03:18:25.894Z,25.70
2022-11-24T03:19:22.554Z,27.70
2022-11-24T03:20:22.918Z,25.80
2022-11-24T03:21:20.717Z,25.20
2022-11-24T03:22:35.753Z,30.70
2022-11-24T03:23:31.751Z,29.90
2022-11-24T04:58:50.842Z,21.30
2022-11-24T04:59:51.688Z,22.60
2022-11-24T05:01:07.851Z,21.50
2022-11-24T05:02:01.058Z,23.10
2022-11-24T05:02:53.028Z,20.30
2022-11-24T05:04:00.208Z,22.00
2022-11-24T05:04:51.580Z,20.20
2022-11-24T05:05:56.201Z,25.70
2022-11-24T05:07:00.677Z,25.60
2022-11-24T05:07:52.862Z,22.20
2022-11-24T05:09:13.056Z,23.00
2022-11-24T05:10:27.983Z,20.90
2022-11-24T05:11:01.496Z,18.80
2022-11-24T05:11:57.145Z,19.50
2022-11-24T05:13:02.444Z,16.80
2022-11-24T05:14:05.884Z,16.80
2022-11-24T05:14:56.462Z,19.90
2022-11-24T05:15:45.800Z,18.00
2022-11-24T05:16:45.663Z,23.40
2022-11-24T05:17:45.774Z,24.80
2022-11-24T05:18:45.767Z,15.70
2022-11-24T05:19:45.662Z,17.90
2022-11-24T05:20:45.708Z,23.50
2022-11-24T05:21:45.599Z,18.00
2022-11-24T05:22:45.592Z,24.70
2022-11-24T05:23:45.637Z,16.70
2022-11-24T05:24:45.549Z,19.10
2022-11-24T05:25:47.911Z,27.40
2022-11-24T05:26:46.459Z,24.00
2022-11-24T05:27:45.817Z,23.70
2022-11-24T05:28:45.649Z,27.30
2022-11-24T05:29:45.566Z,23.30
2022-11-24T05:30:45.566Z,23.60
2022-11-24T05:31:45.678Z,25.90
2022-11-24T05:32:45.487Z,26.10
2022-11-24T05:33:45.463Z,24.20
2022-11-24T05:34:45.595Z,25.30
2022-11-24T05:36:04.024Z,26.90
2022-11-24T05:36:45.466Z,26.90
2022-11-24T05:37:45.419Z,24.30
2022-11-24T05:38:46.345Z,22.10
2022-11-24T05:39:45.811Z,19.80
2022-11-24T05:40:45.402Z,27.90
2022-11-24T05:41:46.256Z,24.90
2022-11-24T05:43:17.653Z,26.70
2022-11-24T05:44:12.985Z,23.10
2022-11-24T05:45:22.479Z,23.40
2022-11-24T05:46:17.964Z,22.30
2022-11-24T05:47:17.248Z,23.90
2022-11-24T05:59:54.351Z,21.90
2022-11-24T06:00:17.827Z,20.30
2022-11-24T06:01:18.841Z,19.80
2022-11-24T06:02:18.919Z,19.50
2022-11-24T06:03:18.711Z,23.00
2022-11-24T06:04:17.816Z,20.60
2022-11-24T06:05:17.839Z,27.70
2022-11-24T06:06:18.058Z,26.80
2022-11-24T06:07:18.736Z,22.40
2022-11-24T06:08:17.884Z,19.00
2022-11-24T06:09:17.858Z,22.90
2022-11-24T06:17:43.229Z,17.20
2022-11-24T06:18:07.894Z,16.70
2022-11-24T06:19:08.724Z,15.70
2022-11-24T06:20:07.754Z,16.70
2022-11-24T06:21:11.842Z,17.20
2022-11-24T06:22:07.686Z,17.20
2022-11-24T06:23:08.221Z,17.70
2022-11-24T06:24:07.747Z,18.50
2022-11-24T06:25:36.176Z,23.20
2022-11-24T06:26:24.920Z,21.20
2022-11-24T06:27:11.830Z,21.70
2022-11-24T07:11:24.682Z,23.10
2022-11-24T07:12:24.252Z,22.60
2022-11-24T07:13:24.463Z,22.10
2022-11-24T07:14:25.091Z,21.40
2022-11-24T07:15:24.392Z,20.70
2022-11-24T07:16:24.600Z,22.90
2022-11-24T07:17:24.408Z,26.90
2022-11-24T07:18:25.013Z,20.80
2022-11-24T07:19:25.245Z,21.70
2022-11-24T07:20:45.830Z,22.90
2022-11-24T07:24:55.658Z,25.90
2022-11-24T07:25:55.561Z,25.30
2022-11-24T07:26:55.459Z,26.30
2022-11-24T07:27:56.293Z,21.00
2022-11-24T07:28:55.444Z,24.40
2022-11-24T07:29:55.412Z,27.60
2022-11-24T07:30:55.431Z,24.40
2022-11-24T07:31:58.545Z,29.30
2022-11-24T07:32:56.535Z,28.90
2022-11-24T07:33:55.460Z,29.60
2022-11-24T07:34:55.343Z,29.60
2022-11-24T07:35:56.494Z,31.60
2022-11-24T07:36:55.360Z,30.10
2022-11-24T07:37:55.355Z,25.30
2022-11-24T07:38:55.276Z,29.00
2022-11-24T07:39:55.170Z,26.60
2022-11-24T07:40:55.391Z,24.90
2022-11-24T07:41:55.488Z,31.50
2022-11-24T07:42:55.406Z,25.50
2022-11-24T07:43:55.301Z,32.30
2022-11-24T07:44:55.128Z,33.10
2022-11-24T07:45:55.700Z,32.40
2022-11-24T07:46:57.043Z,29.00
2022-11-24T08:34:14.036Z,26.70
2022-11-24T08:59:21.825Z,18.50
2022-11-24T09:00:06.756Z,20.10
2022-11-24T09:01:12.035Z,22.10
2022-11-24T09:04:50.085Z,19.80
2022-11-24T09:05:52.456Z,21.30
2022-11-24T09:11:05.781Z,22.30
2022-11-24T09:11:58.643Z,22.20
2022-11-24T09:12:58.753Z,25.60
2022-11-24T09:14:17.398Z,16.40
2022-11-24T09:34:17.759Z,14.70
2022-11-24T09:47:26.445Z,22.00
2022-11-24T10:12:26.993Z,8.90
2022-11-24T10:25:43.555Z,9.40
2022-11-24T11:45:46.891Z,7.20
2022-11-24T12:03:13.868Z,8.20
2022-11-24T12:03:53.653Z,7.90
2022-11-24T12:15:33.244Z,6.60
2022-11-24T12:16:34.209Z,6.40
2022-11-24T12:17:33.099Z,6.30
2022-11-24T12:18:56.589Z,6.60
2022-11-24T12:19:34.305Z,7.50
2022-11-24T12:20:33.085Z,5.20
2022-11-24T12:21:33.195Z,6.90
2022-11-24T12:22:33.218Z,7.10
2022-11-24T12:23:33.524Z,6.60
2022-11-24T12:24:35.674Z,7.30
2022-11-24T12:25:33.045Z,6.80
2022-11-24T12:26:33.244Z,7.20
2022-11-24T12:27:33.069Z,7.40
2022-11-24T12:28:33.273Z,6.00
2022-11-24T12:29:34.053Z,6.30
2022-11-24T12:30:33.166Z,7.50
2022-11-24T12:31:33.141Z,6.60
2022-11-24T12:32:33.174Z,5.40
2022-11-24T12:33:33.895Z,6.70
2022-11-24T12:34:32.996Z,6.30
2022-11-24T12:35:33.007Z,6.30
2022-11-24T12:36:32.804Z,7.80
2022-11-24T12:37:32.823Z,6.60
2022-11-24T12:38:54.000Z,7.30
2022-11-24T12:39:59.139Z,7.20
2022-11-24T12:41:39.868Z,8.00
2022-11-24T12:42:01.468Z,9.10
2022-11-24T12:46:26.647Z,6.90
2022-11-24T12:47:25.985Z,7.20
2022-11-24T12:48:23.565Z,8.40
2022-11-24T12:49:23.579Z,6.40
2022-11-24T12:50:24.317Z,7.60
2022-11-24T12:51:23.604Z,6.70
2022-11-24T12:52:23.398Z,6.40
2022-11-24T12:53:23.502Z,6.40
2022-11-24T12:54:23.525Z,6.30
2022-11-24T12:55:23.601Z,6.70
2022-11-24T12:56:23.529Z,6.40
2022-11-24T12:57:23.434Z,6.20
2022-11-24T12:58:23.458Z,7.00
2022-11-24T12:59:23.358Z,6.70
2022-11-24T13:00:23.562Z,5.80
2022-11-24T13:01:46.138Z,6.30
2022-11-24T13:02:25.923Z,7.70
2022-11-24T13:03:24.347Z,6.20
2022-11-24T13:04:24.243Z,5.90
2022-11-24T13:05:24.975Z,6.00
2022-11-24T13:06:26.347Z,7.60
2022-11-24T13:07:23.808Z,6.90
2022-11-24T13:08:30.015Z,7.90
2022-11-24T13:09:25.341Z,6.80
2022-11-24T13:12:35.273Z,7.00
2022-11-24T13:13:11.095Z,7.10
2022-11-24T13:14:14.066Z,8.80
2022-11-24T13:16:59.528Z,9.30
2022-11-24T13:26:10.795Z,6.60
2022-11-24T13:27:18.482Z,6.50
2022-11-24T13:27:54.839Z,6.10
2022-11-24T15:03:05.055Z,11.80
2022-11-24T15:04:09.706Z,11.50
2022-11-24T15:05:06.149Z,11.80
2022-11-24T15:05:46.974Z,10.40
2022-11-24T15:07:01.761Z,11.00
2022-11-24T15:08:05.511Z,11.30
2022-11-24T15:08:57.685Z,12.00
2022-11-24T15:11:55.252Z,13.30
2022-11-24T15:16:08.319Z,16.90
2022-11-24T15:16:39.863Z,17.20
2022-11-24T15:17:43.283Z,18.60
2022-11-24T15:18:43.505Z,15.80
2022-11-24T15:19:46.966Z,17.30
2022-11-24T15:21:05.757Z,18.30
2022-11-24T15:21:53.084Z,19.30
2022-11-24T15:23:11.686Z,17.00
2022-11-24T15:26:46.075Z,17.00
2022-11-24T16:39:27.657Z,45.50
2022-11-24T16:40:24.864Z,45.40
2022-11-24T16:41:23.233Z,35.00
2022-11-24T16:42:35.768Z,35.10
2022-11-24T16:43:31.982Z,50.80
2022-11-24T17:03:11.380Z,36.60
2022-11-24T17:04:38.564Z,37.90
2022-11-24T17:05:20.183Z,54.30
2022-11-24T17:06:25.257Z,52.40
2022-11-24T17:07:15.437Z,91.70
2022-11-24T17:08:18.492Z,66.70
2022-11-24T17:12:41.417Z,33.70
2022-11-24T17:13:14.249Z,32.50
2022-11-24T18:36:14.923Z,34.20
2022-11-24T18:37:15.440Z,35.00
2022-11-24T18:38:17.221Z,36.10
2022-11-24T18:39:22.105Z,31.90
2022-11-24T18:40:14.252Z,28.30
2022-11-24T18:41:23.553Z,29.90
2022-11-24T18:42:12.957Z,27.30
2022-11-24T18:43:16.655Z,26.90
2022-11-24T18:44:15.755Z,28.10
2022-11-24T18:45:24.101Z,31.50
2022-11-24T18:46:17.353Z,31.60
2022-11-24T18:47:24.313Z,29.40
2022-11-24T18:48:27.573Z,23.20
2022-11-24T18:55:10.234Z,26.10
2022-11-24T18:55:38.208Z,26.20
2022-11-24T18:56:28.622Z,28.20
2022-11-24T18:57:27.082Z,30.10
2022-11-24T18:58:23.492Z,44.10
2022-11-24T18:59:24.973Z,45.30
2022-11-24T19:00:29.363Z,45.90
2022-11-24T19:01:29.957Z,43.40
2022-11-24T19:02:30.985Z,58.20
2022-11-24T19:03:31.932Z,48.80
2022-11-24T19:40:10.606Z,30.50
2022-11-24T19:41:03.331Z,29.70
2022-11-24T19:42:29.632Z,30.70
2022-11-24T19:43:04.949Z,31.30
2022-11-24T19:44:05.278Z,32.80
2022-11-24T19:45:04.531Z,28.90
2022-11-24T19:46:04.632Z,31.10
2022-11-24T19:47:08.061Z,34.10
2022-11-24T19:48:04.918Z,35.60
2022-11-24T19:49:04.836Z,42.40
2022-11-24T19:50:10.202Z,45.30
2022-11-24T19:51:08.161Z,40.00
2022-11-24T19:52:09.910Z,37.30
2022-11-24T19:53:03.658Z,42.30
2022-11-24T19:54:06.881Z,43.80
2022-11-24T19:55:11.086Z,42.90
2022-11-24T19:56:16.190Z,40.30
2022-11-24T19:57:06.318Z,46.20
2022-11-24T19:58:06.196Z,41.20
2022-11-24T19:59:04.421Z,43.80
2022-11-24T20:00:08.969Z,43.90
2022-11-24T20:01:03.705Z,43.50
2022-11-24T20:02:11.115Z,39.40
2022-11-24T20:03:05.208Z,45.10
2022-11-24T20:04:06.329Z,38.00
2022-11-24T20:05:12.155Z,51.90
2022-11-24T20:08:13.164Z,40.30
2022-11-24T20:09:01.869Z,39.30
2022-11-24T20:10:06.097Z,51.80
2022-11-24T20:10:59.206Z,38.60
2022-11-24T20:11:56.535Z,43.30
2022-11-24T20:12:58.781Z,35.90
2022-11-24T20:14:22.641Z,41.20
2022-11-24T20:14:56.133Z,44.10
2022-11-24T20:15:57.402Z,44.40
2022-11-24T20:17:11.937Z,50.40
2022-11-24T20:17:59.722Z,50.10
2022-11-24T20:19:04.086Z,53.20
2022-11-24T20:20:04.551Z,62.80
2022-11-24T20:20:58.483Z,51.40
2022-11-24T20:21:58.297Z,52.60
2022-11-24T20:22:56.945Z,45.00
2022-11-24T20:24:04.929Z,52.70
2022-11-24T20:25:41.556Z,61.00
2022-11-24T20:26:15.840Z,71.80
2022-11-24T20:27:30.159Z,69.00
2022-11-24T20:28:13.860Z,58.20
2022-11-24T20:29:12.454Z,58.30
2022-11-24T20:30:30.267Z,51.50
2022-11-24T20:31:13.624Z,59.90
2022-11-24T20:32:08.484Z,65.40
2022-11-24T20:33:08.204Z,47.10
2022-11-24T20:34:05.083Z,53.20
2022-11-24T20:35:11.216Z,51.50
2022-11-24T20:36:08.444Z,44.00
2022-11-24T20:37:06.538Z,38.80
2022-11-24T20:38:05.751Z,40.20
2022-11-24T20:39:01.633Z,42.90
2022-11-24T20:39:59.820Z,45.90
2022-11-24T20:41:08.822Z,42.30
2022-11-24T20:42:03.253Z,46.50
2022-11-24T20:43:00.622Z,42.10
2022-11-24T20:44:22.144Z,43.80
2022-11-24T20:44:59.146Z,40.80
2022-11-24T20:46:08.042Z,41.10
2022-11-24T20:47:02.514Z,47.70
2022-11-24T20:48:13.227Z,70.50
2022-11-24T22:09:21.443Z,37.60
2022-11-24T22:09:44.412Z,36.70
2022-11-24T22:20:24.331Z,50.00
2022-11-24T22:20:54.364Z,49.10
2022-11-24T22:21:58.892Z,61.80
2022-11-24T22:22:55.701Z,50.50
2022-11-24T22:30:03.975Z,55.10
2022-11-24T22:31:00.597Z,55.20
2022-11-24T22:32:09.869Z,53.00
2022-11-24T22:33:09.181Z,60.50
2022-11-24T22:34:00.302Z,56.70
2022-11-24T22:34:57.645Z,58.10
2022-11-24T22:36:21.778Z,56.00
2022-11-24T22:37:07.885Z,58.40
2022-11-24T22:38:13.827Z,54.30
2022-11-24T22:39:20.083Z,59.80
2022-11-24T22:40:11.919Z,72.60
2022-11-24T22:41:05.707Z,51.60
2022-11-24T22:42:07.137Z,52.60
2022-11-24T22:43:07.465Z,54.40
2022-11-24T22:44:06.813Z,47.70
2022-11-24T22:45:02.816Z,59.90
2022-11-24T22:46:07.610Z,62.00
2022-11-24T22:46:59.548Z,58.60
2022-11-24T22:48:03.104Z,55.80
2022-11-24T22:49:02.153Z,61.30
2022-11-24T22:50:06.104Z,60.60
2022-11-24T22:54:11.917Z,56.90
2022-11-24T22:55:11.331Z,57.00
2022-11-24T22:56:10.305Z,61.30
2022-11-24T22:57:14.857Z,66.40
2022-11-24T22:58:15.300Z,54.10
2022-11-24T22:59:14.401Z,62.90
2022-11-24T23:00:10.352Z,65.30
2022-11-24T23:01:13.180Z,60.60
2022-11-24T23:02:15.491Z,61.80
2022-11-24T23:03:24.565Z,58.80
2022-11-24T23:04:09.223Z,59.40
2022-11-24T23:05:14.708Z,66.90
2022-11-24T23:06:14.775Z,69.20
2022-11-24T23:07:18.199Z,62.50
2022-11-24T23:08:51.186Z,68.20
2022-11-24T23:09:22.726Z,66.60
2022-11-24T23:10:38.182Z,64.90
2022-11-24T23:11:40.785Z,66.10
2022-11-24T23:12:37.506Z,64.70
2022-11-24T23:13:14.331Z,66.70
2022-11-24T23:14:12.697Z,70.40
2022-11-24T23:15:11.696Z,60.30
2022-11-24T23:16:10.657Z,69.20
2022-11-24T23:17:15.633Z,67.40
2022-11-24T23:18:16.244Z,72.70
2022-11-24T23:19:19.535Z,73.60
2022-11-24T23:20:08.364Z,71.70
2022-11-24T23:21:35.772Z,72.50
2022-11-24T23:22:15.372Z,72.10
2022-11-24T23:23:19.151Z,72.40
2022-11-24T23:24:13.333Z,69.60
2022-11-24T23:25:16.889Z,78.90
2022-11-24T23:26:39.215Z,73.70
2022-11-24T23:27:06.782Z,73.70
2022-11-24T23:28:18.635Z,77.50
2022-11-24T23:33:09.953Z,75.10
2022-11-24T23:33:40.931Z,74.90
2022-11-24T23:34:41.918Z,77.90
2022-11-24T23:35:41.496Z,74.30
2022-11-24T23:38:49.197Z,59.10
2022-11-24T23:58:28.775Z,59.50
2022-11-24T23:59:33.451Z,55.70
